createdAt,value
2024-05-09T00:00:58.402Z,15.78
2024-05-09T00:01:58.405Z,12.46
2024-05-09T00:02:58.456Z,12.39
2024-05-09T00:03:58.560Z,11.11
2024-05-09T00:04:58.615Z,10.99
2024-05-09T00:05:58.587Z,11.07
2024-05-09T00:06:58.581Z,13.01
2024-05-09T00:07:58.656Z,14.16
2024-05-09T00:08:58.664Z,13.85
2024-05-09T00:09:58.697Z,16.63
2024-05-09T00:10:58.832Z,14.22
2024-05-09T00:11:58.909Z,15.55
2024-05-09T00:12:58.818Z,19.40
2024-05-09T00:13:58.972Z,23.67
2024-05-09T00:14:58.945Z,21.89
2024-05-09T00:15:59.038Z,25.05
2024-05-09T00:16:59.275Z,17.85
2024-05-09T00:17:59.354Z,19.42
2024-05-09T00:18:59.451Z,17.50
2024-05-09T00:19:59.424Z,14.37
2024-05-09T00:20:59.482Z,15.56
2024-05-09T00:21:59.516Z,16.52
2024-05-09T00:22:59.608Z,15.82
2024-05-09T00:23:59.676Z,14.26
2024-05-09T00:24:59.707Z,15.32
2024-05-09T00:25:59.799Z,14.27
2024-05-09T00:26:59.797Z,12.50
2024-05-09T00:27:59.881Z,13.28
2024-05-09T00:28:59.997Z,12.01
2024-05-09T00:30:00.024Z,11.94
2024-05-09T00:31:00.056Z,11.62
2024-05-09T00:32:00.357Z,11.44
2024-05-09T00:33:00.348Z,11.93
2024-05-09T00:34:00.382Z,12.09
2024-05-09T00:35:00.312Z,12.72
2024-05-09T00:36:00.329Z,12.18
2024-05-09T00:37:01.181Z,10.98
2024-05-09T00:38:00.813Z,11.75
2024-05-09T00:39:00.577Z,11.83
2024-05-09T00:40:00.631Z,11.58
2024-05-09T00:41:00.875Z,11.22
2024-05-09T00:42:00.820Z,10.29
2024-05-09T00:43:00.918Z,10.48
2024-05-09T00:44:01.076Z,10.95
2024-05-09T00:45:01.103Z,10.88
2024-05-09T00:46:01.206Z,11.16
2024-05-09T00:47:01.319Z,10.73
2024-05-09T00:48:01.658Z,11.10
2024-05-09T00:49:01.650Z,10.80
2024-05-09T00:50:01.631Z,10.75
2024-05-09T00:51:01.710Z,11.67
2024-05-09T00:52:01.706Z,11.09
2024-05-09T00:53:01.775Z,10.97
2024-05-09T00:54:01.793Z,11.07
2024-05-09T00:55:01.838Z,10.51
2024-05-09T00:56:01.951Z,10.65
2024-05-09T00:57:01.991Z,10.89
2024-05-09T00:58:01.996Z,11.26
2024-05-09T00:59:02.065Z,10.79
2024-05-09T01:00:02.109Z,9.96
2024-05-09T01:01:02.248Z,10.52
2024-05-09T01:02:02.390Z,10.61
2024-05-09T01:03:02.603Z,11.37
2024-05-09T01:04:02.439Z,10.68
2024-05-09T01:05:02.506Z,11.24
2024-05-09T01:06:02.486Z,11.66
2024-05-09T01:07:02.445Z,11.01
2024-05-09T01:08:02.761Z,10.65
2024-05-09T01:09:02.553Z,10.99
2024-05-09T01:10:03.228Z,11.28
2024-05-09T01:11:02.941Z,11.30
2024-05-09T01:12:02.976Z,11.15
2024-05-09T01:13:03.003Z,12.14
2024-05-09T01:14:03.015Z,12.24
2024-05-09T01:15:03.090Z,12.08
2024-05-09T01:16:03.164Z,11.90
2024-05-09T01:17:03.353Z,13.14
2024-05-09T01:18:03.546Z,11.78
2024-05-09T01:19:03.598Z,10.17
2024-05-09T01:20:06.246Z,10.13
2024-05-09T01:21:03.780Z,10.13
2024-05-09T01:22:03.837Z,10.95
2024-05-09T01:23:04.026Z,10.82
2024-05-09T01:24:03.965Z,10.75
2024-05-09T01:25:04.084Z,10.27
2024-05-09T01:26:04.157Z,11.37
2024-05-09T01:27:04.150Z,10.57
2024-05-09T01:28:04.289Z,11.67
2024-05-09T01:29:04.353Z,11.07
2024-05-09T01:30:09.128Z,11.28
2024-05-09T01:31:04.379Z,11.35
2024-05-09T01:32:04.577Z,11.28
2024-05-09T01:33:05.225Z,9.56
2024-05-09T01:34:04.454Z,10.24
2024-05-09T01:35:04.448Z,8.99
2024-05-09T01:36:04.487Z,10.42
2024-05-09T01:37:04.487Z,9.78
2024-05-09T01:38:04.626Z,9.87
2024-05-09T01:39:04.524Z,10.66
2024-05-09T01:40:07.371Z,9.85
2024-05-09T01:41:04.620Z,10.19
2024-05-09T01:42:04.596Z,9.95
2024-05-09T01:43:04.664Z,8.80
2024-05-09T01:44:04.736Z,11.43
2024-05-09T01:45:04.670Z,10.56
2024-05-09T01:46:04.716Z,10.11
2024-05-09T01:47:04.772Z,10.30
2024-05-09T01:48:05.076Z,10.29
2024-05-09T01:49:04.893Z,10.31
2024-05-09T01:50:08.717Z,9.99
2024-05-09T01:51:04.980Z,10.65
2024-05-09T01:52:04.841Z,10.65
2024-05-09T01:53:04.955Z,10.48
2024-05-09T01:54:04.882Z,9.48
2024-05-09T01:55:06.602Z,10.02
2024-05-09T01:56:04.997Z,10.12
2024-05-09T01:57:04.965Z,10.48
2024-05-09T01:58:05.085Z,10.83
2024-05-09T01:59:05.080Z,11.23
2024-05-09T02:00:07.742Z,9.94
2024-05-09T02:01:05.197Z,11.06
2024-05-09T02:02:05.401Z,10.84
2024-05-09T02:03:05.393Z,10.33
2024-05-09T02:04:05.393Z,10.78
2024-05-09T02:05:05.478Z,10.15
2024-05-09T02:06:05.497Z,11.05
2024-05-09T02:07:05.335Z,10.88
2024-05-09T02:08:05.429Z,11.36
2024-05-09T02:09:05.375Z,10.61
2024-05-09T02:10:13.582Z,11.56
2024-05-09T02:11:05.513Z,11.59
2024-05-09T02:12:05.706Z,12.13
2024-05-09T02:13:05.495Z,11.56
2024-05-09T02:14:05.573Z,10.98
2024-05-09T02:15:05.552Z,12.47
2024-05-09T02:16:05.598Z,12.66
2024-05-09T02:17:05.668Z,11.46
2024-05-09T02:18:05.854Z,13.07
2024-05-09T02:19:06.522Z,13.03
2024-05-09T02:20:06.287Z,11.33
2024-05-09T02:21:05.828Z,12.08
2024-05-09T02:22:05.835Z,11.81
2024-05-09T02:23:06.406Z,11.25
2024-05-09T02:24:05.888Z,12.83
2024-05-09T02:25:05.933Z,11.30
2024-05-09T02:26:06.054Z,12.12
2024-05-09T02:27:06.121Z,11.08
2024-05-09T02:28:06.068Z,12.59
2024-05-09T02:29:06.172Z,12.32
2024-05-09T02:30:12.095Z,10.94
2024-05-09T02:31:06.182Z,10.28
2024-05-09T02:32:06.266Z,12.54
2024-05-09T02:33:06.479Z,13.31
2024-05-09T02:34:06.427Z,12.35
2024-05-09T02:35:06.379Z,11.19
2024-05-09T02:36:06.407Z,11.21
2024-05-09T02:37:06.522Z,11.94
2024-05-09T02:38:06.602Z,11.37
2024-05-09T02:39:06.501Z,13.09
2024-05-09T02:40:09.258Z,11.43
2024-05-09T02:41:06.588Z,11.60
2024-05-09T02:42:06.582Z,11.46
2024-05-09T02:43:06.931Z,11.41
2024-05-09T02:44:06.684Z,11.26
2024-05-09T02:45:06.677Z,12.03
2024-05-09T02:46:06.736Z,11.41
2024-05-09T02:47:06.954Z,11.38
2024-05-09T02:48:07.115Z,12.13
2024-05-09T02:49:06.898Z,11.70
2024-05-09T02:50:08.224Z,12.16
2024-05-09T02:51:07.244Z,12.18
2024-05-09T02:52:07.106Z,13.30
2024-05-09T02:53:07.412Z,12.13
2024-05-09T02:54:07.240Z,13.11
2024-05-09T02:55:07.302Z,12.31
2024-05-09T02:56:07.517Z,13.35
2024-05-09T02:57:07.547Z,12.74
2024-05-09T02:58:07.617Z,13.03
2024-05-09T02:59:07.742Z,12.45
2024-05-09T03:00:12.258Z,12.17
2024-05-09T03:01:07.868Z,12.68
2024-05-09T03:02:07.958Z,12.50
2024-05-09T03:03:08.967Z,12.68
2024-05-09T03:04:08.159Z,11.49
2024-05-09T03:05:08.077Z,12.27
2024-05-09T03:06:08.079Z,12.35
2024-05-09T03:07:08.143Z,11.29
2024-05-09T03:08:08.372Z,11.56
2024-05-09T03:09:08.218Z,11.39
2024-05-09T03:10:18.048Z,9.67
2024-05-09T03:11:08.467Z,9.77
2024-05-09T03:12:08.486Z,9.75
2024-05-09T03:13:08.607Z,10.18
2024-05-09T03:14:08.457Z,10.54
2024-05-09T03:15:08.491Z,10.36
2024-05-09T03:16:08.543Z,10.31
2024-05-09T03:17:08.729Z,10.72
2024-05-09T03:18:08.827Z,10.79
2024-05-09T03:19:08.817Z,9.08
2024-05-09T03:20:17.292Z,10.57
2024-05-09T03:21:08.992Z,10.27
2024-05-09T03:22:08.836Z,9.53
2024-05-09T03:23:10.031Z,10.48
2024-05-09T03:24:09.104Z,10.34
2024-05-09T03:25:09.226Z,9.54
2024-05-09T03:26:09.402Z,9.50
2024-05-09T03:27:09.478Z,9.48
2024-05-09T03:28:09.566Z,9.27
2024-05-09T03:29:09.765Z,10.42
2024-05-09T03:30:10.047Z,9.44
2024-05-09T03:31:09.891Z,9.05
2024-05-09T03:32:10.105Z,10.06
2024-05-09T03:33:10.415Z,9.19
2024-05-09T03:34:10.174Z,9.93
2024-05-09T03:35:10.268Z,9.38
2024-05-09T03:36:11.408Z,9.05
2024-05-09T03:37:10.324Z,9.76
2024-05-09T03:38:10.498Z,9.73
2024-05-09T03:39:10.452Z,8.92
2024-05-09T03:40:17.568Z,9.77
2024-05-09T03:41:10.563Z,9.69
2024-05-09T03:42:10.582Z,9.50
2024-05-09T03:43:10.591Z,10.16
2024-05-09T03:44:10.696Z,10.92
2024-05-09T03:45:10.678Z,11.67
2024-05-09T03:46:10.726Z,10.86
2024-05-09T03:47:10.812Z,11.03
2024-05-09T03:48:11.407Z,11.51
2024-05-09T03:49:10.984Z,10.29
2024-05-09T03:50:18.280Z,10.35
2024-05-09T03:51:11.187Z,11.32
2024-05-09T03:52:11.118Z,11.32
2024-05-09T03:53:11.396Z,9.64
2024-05-09T03:54:11.266Z,10.53
2024-05-09T03:55:11.332Z,10.37
2024-05-09T03:56:11.395Z,11.35
2024-05-09T03:57:11.414Z,10.28
2024-05-09T03:58:11.508Z,9.68
2024-05-09T03:59:11.561Z,10.32
2024-05-09T04:00:17.896Z,11.15
2024-05-09T04:01:11.728Z,11.03
2024-05-09T04:02:11.823Z,9.42
2024-05-09T04:03:13.143Z,9.55
2024-05-09T04:04:11.810Z,9.73
2024-05-09T04:05:11.847Z,9.56
2024-05-09T04:06:11.849Z,9.31
2024-05-09T04:07:11.896Z,8.66
2024-05-09T04:08:12.084Z,8.06
2024-05-09T04:09:11.985Z,9.37
2024-05-09T04:10:20.692Z,9.31
2024-05-09T04:11:12.193Z,10.68
2024-05-09T04:12:12.342Z,10.84
2024-05-09T04:13:12.232Z,10.15
2024-05-09T04:14:12.264Z,11.07
2024-05-09T04:15:13.586Z,10.55
2024-05-09T04:16:12.318Z,10.34
2024-05-09T04:17:12.500Z,10.18
2024-05-09T04:18:12.749Z,10.69
2024-05-09T04:19:12.687Z,10.87
2024-05-09T04:20:21.364Z,10.99
2024-05-09T04:21:12.696Z,11.95
2024-05-09T04:22:12.687Z,12.89
2024-05-09T04:23:13.553Z,12.66
2024-05-09T04:24:12.767Z,12.87
2024-05-09T04:25:12.825Z,12.57
2024-05-09T04:26:12.982Z,13.22
2024-05-09T04:27:12.947Z,11.85
2024-05-09T04:28:13.055Z,14.09
2024-05-09T04:29:13.162Z,12.41
2024-05-09T04:30:21.598Z,12.93
2024-05-09T04:31:13.321Z,13.14
2024-05-09T04:32:13.440Z,13.12
2024-05-09T04:33:14.626Z,12.72
2024-05-09T04:34:13.517Z,12.70
2024-05-09T04:35:13.601Z,11.58
2024-05-09T04:36:13.532Z,12.48
2024-05-09T04:37:13.605Z,11.57
2024-05-09T04:38:14.505Z,11.24
2024-05-09T04:39:13.768Z,11.88
2024-05-09T04:40:24.142Z,13.52
2024-05-09T04:41:13.959Z,12.85
2024-05-09T04:42:13.970Z,12.19
2024-05-09T04:43:14.195Z,10.48
2024-05-09T04:44:14.167Z,12.18
2024-05-09T04:45:14.123Z,13.59
2024-05-09T04:46:14.213Z,12.40
2024-05-09T04:47:14.314Z,13.21
2024-05-09T04:48:14.588Z,13.10
2024-05-09T04:49:14.562Z,13.02
2024-05-09T04:50:21.194Z,13.29
2024-05-09T04:51:14.462Z,13.16
2024-05-09T04:52:14.449Z,13.21
2024-05-09T04:53:14.628Z,12.71
2024-05-09T04:54:26.063Z,13.83
2024-05-09T04:55:14.580Z,13.78
2024-05-09T04:56:14.603Z,13.55
2024-05-09T04:57:14.650Z,15.40
2024-05-09T04:58:14.706Z,14.32
2024-05-09T04:59:14.798Z,14.09
2024-05-09T05:00:21.723Z,13.18
2024-05-09T05:01:14.979Z,13.84
2024-05-09T05:02:15.008Z,12.96
2024-05-09T05:03:16.285Z,11.78
2024-05-09T05:04:15.245Z,12.95
2024-05-09T05:05:15.533Z,12.36
2024-05-09T05:06:15.159Z,12.39
2024-05-09T05:07:15.202Z,12.73
2024-05-09T05:08:15.830Z,11.80
2024-05-09T05:09:23.886Z,11.96
2024-05-09T05:10:33.074Z,13.09
2024-05-09T05:11:25.004Z,13.53
2024-05-09T05:12:25.132Z,15.22
2024-05-09T05:13:25.354Z,15.31
2024-05-09T05:14:24.998Z,15.06
2024-05-09T05:15:24.997Z,13.88
2024-05-09T05:16:25.027Z,14.32
2024-05-09T05:17:25.129Z,15.61
2024-05-09T05:18:25.139Z,13.91
2024-05-09T05:19:25.219Z,13.65
2024-05-09T05:20:32.570Z,13.39
2024-05-09T05:21:25.186Z,13.28
2024-05-09T05:22:25.124Z,12.53
2024-05-09T05:23:25.209Z,13.66
2024-05-09T05:24:25.172Z,12.89
2024-05-09T05:25:25.206Z,12.66
2024-05-09T05:26:25.279Z,13.14
2024-05-09T05:27:25.267Z,12.50
2024-05-09T05:28:25.319Z,13.79
2024-05-09T05:29:25.369Z,12.16
2024-05-09T05:30:29.235Z,12.03
2024-05-09T05:31:25.363Z,12.63
2024-05-09T05:32:25.503Z,13.73
2024-05-09T05:33:25.442Z,13.49
2024-05-09T05:34:25.393Z,11.96
2024-05-09T05:35:25.554Z,12.22
2024-05-09T05:36:25.391Z,12.60
2024-05-09T05:37:25.415Z,12.83
2024-05-09T05:38:28.190Z,13.03
2024-05-09T05:39:25.423Z,12.82
2024-05-09T05:40:33.196Z,13.15
2024-05-09T05:41:25.532Z,12.77
2024-05-09T05:42:25.451Z,12.97
2024-05-09T05:43:25.464Z,11.38
2024-05-09T05:44:25.540Z,13.85
2024-05-09T05:45:25.506Z,12.95
2024-05-09T05:46:25.519Z,13.57
2024-05-09T05:47:25.704Z,13.38
2024-05-09T05:48:25.685Z,13.54
2024-05-09T05:49:25.691Z,13.95
2024-05-09T05:50:32.484Z,14.27
2024-05-09T05:51:25.626Z,13.82
2024-05-09T05:52:25.619Z,14.15
2024-05-09T05:53:25.645Z,13.27
2024-05-09T05:54:25.632Z,13.03
2024-05-09T05:55:25.638Z,14.02
2024-05-09T05:56:25.683Z,14.96
2024-05-09T05:57:25.651Z,14.72
2024-05-09T05:58:25.652Z,14.02
2024-05-09T05:59:25.691Z,14.68
2024-05-09T06:00:30.290Z,14.34
2024-05-09T06:01:25.758Z,14.70
2024-05-09T06:02:25.802Z,13.45
2024-05-09T06:03:25.743Z,14.13
2024-05-09T06:04:25.751Z,14.26
2024-05-09T06:05:27.666Z,14.41
2024-05-09T06:06:25.730Z,15.29
2024-05-09T06:07:25.745Z,14.45
2024-05-09T06:08:28.853Z,15.47
2024-05-09T06:09:25.801Z,14.28
2024-05-09T06:10:30.485Z,15.56
2024-05-09T06:11:26.074Z,13.04
2024-05-09T06:12:26.037Z,14.02
2024-05-09T06:13:25.901Z,14.06
2024-05-09T06:14:25.944Z,13.51
2024-05-09T06:15:25.932Z,13.44
2024-05-09T06:16:25.943Z,12.92
2024-05-09T06:17:26.176Z,13.55
2024-05-09T06:18:26.307Z,13.67
2024-05-09T06:19:26.340Z,14.07
2024-05-09T06:20:34.368Z,13.64
2024-05-09T06:21:26.074Z,14.60
2024-05-09T06:22:25.997Z,14.17
2024-05-09T06:23:26.070Z,13.17
2024-05-09T06:24:26.005Z,14.62
2024-05-09T06:25:25.999Z,14.31
2024-05-09T06:26:26.061Z,13.68
2024-05-09T06:27:25.959Z,13.65
2024-05-09T06:28:25.956Z,12.83
2024-05-09T06:29:26.139Z,14.07
2024-05-09T06:30:34.790Z,13.11
2024-05-09T06:31:25.923Z,14.06
2024-05-09T06:32:26.062Z,15.34
2024-05-09T06:33:26.233Z,13.96
2024-05-09T06:34:26.068Z,14.11
2024-05-09T06:35:25.900Z,13.20
2024-05-09T06:36:25.851Z,13.83
2024-05-09T06:37:25.855Z,13.59
2024-05-09T06:38:25.879Z,11.81
2024-05-09T06:39:25.814Z,12.60
2024-05-09T06:40:34.283Z,13.89
2024-05-09T06:41:25.826Z,13.56
2024-05-09T06:42:25.779Z,13.25
2024-05-09T06:43:25.788Z,14.50
2024-05-09T06:44:25.797Z,12.69
2024-05-09T06:45:25.759Z,14.25
2024-05-09T06:46:25.731Z,12.28
2024-05-09T06:47:25.826Z,12.35
2024-05-09T06:48:25.954Z,12.53
2024-05-09T06:49:25.827Z,13.99
2024-05-09T06:50:28.391Z,11.84
2024-05-09T06:51:25.761Z,13.08
2024-05-09T06:52:25.670Z,12.73
2024-05-09T06:53:25.704Z,12.87
2024-05-09T06:54:25.663Z,13.93
2024-05-09T06:55:25.632Z,12.06
2024-05-09T06:56:25.630Z,12.60
2024-05-09T06:57:25.581Z,13.52
2024-05-09T06:58:25.575Z,13.14
2024-05-09T06:59:25.744Z,13.88
2024-05-09T07:00:34.459Z,13.20
2024-05-09T07:01:25.511Z,13.03
2024-05-09T07:02:25.599Z,12.59
2024-05-09T07:03:25.658Z,13.86
2024-05-09T07:04:25.518Z,13.32
2024-05-09T07:05:25.731Z,14.10
2024-05-09T07:06:25.406Z,15.50
2024-05-09T07:07:25.410Z,13.07
2024-05-09T07:08:25.457Z,12.08
2024-05-09T07:09:25.391Z,11.71
2024-05-09T07:10:32.411Z,10.99
2024-05-09T07:11:25.526Z,11.42
2024-05-09T07:12:25.536Z,12.89
2024-05-09T07:13:25.425Z,11.21
2024-05-09T07:14:25.454Z,11.26
2024-05-09T07:15:25.449Z,11.22
2024-05-09T07:16:25.478Z,10.77
2024-05-09T07:17:25.612Z,12.05
2024-05-09T07:18:25.599Z,12.64
2024-05-09T07:19:25.587Z,11.54
2024-05-09T07:20:33.769Z,11.24
2024-05-09T07:21:25.526Z,11.71
2024-05-09T07:22:25.471Z,11.82
2024-05-09T07:23:25.507Z,12.59
2024-05-09T07:24:25.456Z,10.95
2024-05-09T07:25:25.461Z,10.24
2024-05-09T07:26:25.503Z,11.43
2024-05-09T07:27:25.461Z,10.66
2024-05-09T07:28:25.449Z,10.43
2024-05-09T07:29:25.509Z,9.42
2024-05-09T07:30:32.832Z,9.67
2024-05-09T07:31:25.414Z,8.76
2024-05-09T07:32:25.492Z,8.23
2024-05-09T07:33:25.518Z,9.51
2024-05-09T07:34:25.564Z,9.26
2024-05-09T07:35:25.912Z,9.06
2024-05-09T07:36:25.260Z,9.82
2024-05-09T07:37:25.205Z,9.34
2024-05-09T07:38:25.215Z,8.86
2024-05-09T07:39:25.154Z,8.90
2024-05-09T07:40:32.943Z,9.21
2024-05-09T07:41:25.207Z,10.58
2024-05-09T07:42:25.056Z,10.16
2024-05-09T07:43:25.078Z,10.05
2024-05-09T07:44:25.095Z,9.88
2024-05-09T07:45:43.024Z,9.37
2024-05-09T07:47:20.736Z,10.69
2024-05-09T07:48:56.880Z,9.53
2024-05-09T07:53:30.562Z,9.29
2024-05-09T07:54:23.885Z,9.97
2024-05-09T07:55:25.077Z,10.29
2024-05-09T07:56:25.876Z,10.30
2024-05-09T07:57:24.886Z,9.19
2024-05-09T07:58:24.792Z,9.12
2024-05-09T07:59:24.779Z,9.08
2024-05-09T08:00:31.020Z,8.52
2024-05-09T08:01:24.859Z,7.88
2024-05-09T08:02:24.899Z,7.73
2024-05-09T08:03:24.769Z,8.80
2024-05-09T08:04:26.679Z,8.71
2024-05-09T08:05:24.752Z,7.74
2024-05-09T08:06:24.658Z,6.53
2024-05-09T08:07:24.589Z,6.23
2024-05-09T08:08:24.520Z,7.14
2024-05-09T08:09:24.483Z,7.77
2024-05-09T08:10:27.538Z,7.14
2024-05-09T08:11:24.739Z,6.47
2024-05-09T08:12:24.637Z,7.55
2024-05-09T08:13:24.726Z,6.87
2024-05-09T08:14:24.738Z,7.88
2024-05-09T08:15:24.651Z,7.27
2024-05-09T08:16:24.847Z,7.77
2024-05-09T08:17:24.911Z,8.22
2024-05-09T08:18:24.975Z,8.30
2024-05-09T08:19:24.829Z,9.54
2024-05-09T08:20:31.055Z,9.07
2024-05-09T08:21:24.802Z,9.80
2024-05-09T08:22:24.787Z,9.38
2024-05-09T08:23:24.775Z,8.94
2024-05-09T08:24:24.735Z,9.97
2024-05-09T08:25:24.804Z,8.86
2024-05-09T08:26:24.698Z,8.76
2024-05-09T08:27:24.665Z,8.88
2024-05-09T08:28:24.739Z,7.25
2024-05-09T08:29:24.627Z,6.59
2024-05-09T08:30:32.527Z,7.34
2024-05-09T08:31:24.679Z,6.53
2024-05-09T08:32:24.595Z,7.27
2024-05-09T08:33:24.650Z,7.52
2024-05-09T08:34:24.586Z,7.73
2024-05-09T08:35:24.464Z,7.56
2024-05-09T08:36:24.754Z,7.36
2024-05-09T08:37:27.847Z,8.82
2024-05-09T08:38:24.322Z,8.69
2024-05-09T08:39:24.275Z,8.74
2024-05-09T08:40:31.042Z,6.66
2024-05-09T08:41:24.168Z,6.61
2024-05-09T08:42:24.116Z,4.23
2024-05-09T08:43:24.152Z,5.66
2024-05-09T08:44:24.033Z,5.71
2024-05-09T08:45:24.046Z,5.67
2024-05-09T08:46:24.040Z,6.84
2024-05-09T08:47:24.034Z,7.22
2024-05-09T08:48:24.137Z,6.90
2024-05-09T08:49:23.953Z,6.21
2024-05-09T08:50:31.855Z,7.15
2024-05-09T08:51:23.790Z,6.56
2024-05-09T08:52:23.732Z,6.97
2024-05-09T08:53:23.715Z,6.92
2024-05-09T08:54:23.692Z,6.32
2024-05-09T08:55:23.665Z,6.00
2024-05-09T08:56:23.652Z,6.86
2024-05-09T08:57:23.641Z,6.71
2024-05-09T08:58:23.623Z,6.64
2024-05-09T08:59:23.581Z,6.81
2024-05-09T09:00:33.691Z,6.40
2024-05-09T09:01:23.645Z,6.08
2024-05-09T09:02:23.571Z,5.41
2024-05-09T09:03:23.464Z,6.52
2024-05-09T09:04:23.543Z,5.47
2024-05-09T09:05:23.467Z,6.37
2024-05-09T09:06:23.316Z,6.61
2024-05-09T09:07:23.395Z,6.53
2024-05-09T09:08:23.284Z,7.54
2024-05-09T09:09:23.270Z,6.36
2024-05-09T09:10:29.751Z,6.93
2024-05-09T09:11:23.244Z,6.07
2024-05-09T09:12:23.214Z,6.41
2024-05-09T09:13:23.236Z,6.00
2024-05-09T09:14:23.126Z,5.12
2024-05-09T09:15:23.196Z,4.86
2024-05-09T09:16:23.375Z,5.01
2024-05-09T09:17:23.130Z,4.82
2024-05-09T09:18:23.108Z,4.73
2024-05-09T09:19:23.253Z,4.40
2024-05-09T09:20:28.711Z,4.48
2024-05-09T09:21:22.896Z,4.77
2024-05-09T09:22:22.889Z,4.31
2024-05-09T09:23:22.855Z,4.74
2024-05-09T09:24:22.744Z,4.06
2024-05-09T09:25:22.703Z,4.13
2024-05-09T09:26:22.622Z,4.11
2024-05-09T09:27:22.629Z,3.16
2024-05-09T09:28:22.579Z,3.09
2024-05-09T09:29:22.522Z,3.49
2024-05-09T09:30:34.436Z,3.00
2024-05-09T09:31:22.495Z,3.15
2024-05-09T09:32:22.430Z,3.39
2024-05-09T09:33:22.461Z,3.58
2024-05-09T09:34:22.444Z,4.35
2024-05-09T09:35:22.299Z,3.64
2024-05-09T09:36:22.237Z,3.62
2024-05-09T09:37:22.207Z,3.11
2024-05-09T09:38:22.172Z,3.78
2024-05-09T09:39:22.147Z,3.63
2024-05-09T09:40:22.424Z,3.49
2024-05-09T09:41:22.040Z,3.36
2024-05-09T09:42:22.007Z,2.72
2024-05-09T09:43:22.589Z,2.52
2024-05-09T09:44:21.959Z,3.04
2024-05-09T09:45:21.951Z,2.80
2024-05-09T09:46:21.943Z,3.08
2024-05-09T09:47:21.982Z,2.81
2024-05-09T09:48:22.372Z,3.11
2024-05-09T09:49:21.935Z,2.42
2024-05-09T09:50:27.728Z,2.87
2024-05-09T09:51:21.752Z,2.77
2024-05-09T09:52:21.922Z,2.71
2024-05-09T09:53:21.717Z,2.44
2024-05-09T09:54:21.637Z,2.32
2024-05-09T09:55:21.697Z,2.33
2024-05-09T09:56:21.589Z,2.10
2024-05-09T09:57:21.527Z,2.67
2024-05-09T09:58:21.646Z,2.50
2024-05-09T09:59:21.517Z,2.36
2024-05-09T10:00:27.112Z,2.29
2024-05-09T10:01:21.597Z,2.05
2024-05-09T10:02:21.675Z,2.61
2024-05-09T10:03:21.651Z,2.21
2024-05-09T10:04:21.500Z,1.70
2024-05-09T10:05:21.563Z,1.66
2024-05-09T10:06:21.334Z,2.06
2024-05-09T10:07:21.385Z,1.77
2024-05-09T10:08:21.268Z,1.52
2024-05-09T10:09:21.220Z,1.83
2024-05-09T10:10:27.349Z,1.79
2024-05-09T10:11:21.247Z,1.91
2024-05-09T10:12:21.187Z,1.55
2024-05-09T10:13:21.349Z,1.68
2024-05-09T10:14:21.042Z,2.03
2024-05-09T10:15:21.090Z,2.20
2024-05-09T10:16:21.176Z,1.90
2024-05-09T10:17:21.010Z,1.70
2024-05-09T10:18:21.041Z,1.72
2024-05-09T10:19:20.976Z,1.75
2024-05-09T10:20:24.768Z,1.74
2024-05-09T10:21:20.812Z,1.66
2024-05-09T10:22:20.751Z,1.36
2024-05-09T10:23:20.690Z,1.50
2024-05-09T10:24:20.650Z,1.34
2024-05-09T10:25:20.803Z,1.45
2024-05-09T10:26:20.582Z,1.18
2024-05-09T10:27:20.544Z,1.55
2024-05-09T10:28:20.523Z,1.14
2024-05-09T10:29:20.443Z,1.24
2024-05-09T10:30:26.127Z,1.32
2024-05-09T10:31:20.463Z,1.28
2024-05-09T10:32:20.371Z,1.07
2024-05-09T10:33:20.429Z,1.10
2024-05-09T10:34:20.704Z,1.22
2024-05-09T10:35:20.246Z,0.95
2024-05-09T10:36:20.161Z,1.08
2024-05-09T10:37:20.272Z,1.09
2024-05-09T10:38:20.091Z,1.51
2024-05-09T10:39:21.302Z,1.37
2024-05-09T10:40:26.037Z,1.25
2024-05-09T10:41:19.974Z,1.32
2024-05-09T10:42:19.953Z,1.28
2024-05-09T10:43:20.192Z,1.10
2024-05-09T10:44:19.881Z,1.44
2024-05-09T10:45:19.925Z,1.07
2024-05-09T10:46:20.304Z,1.00
2024-05-09T10:47:19.840Z,1.28
2024-05-09T10:48:19.828Z,1.45
2024-05-09T10:49:19.772Z,1.65
2024-05-09T10:50:25.723Z,1.10
2024-05-09T10:51:20.757Z,1.26
2024-05-09T10:52:19.730Z,1.49
2024-05-09T10:53:19.567Z,1.27
2024-05-09T10:54:19.501Z,1.25
2024-05-09T10:55:19.564Z,1.20
2024-05-09T10:56:19.370Z,1.22
2024-05-09T10:57:19.316Z,1.28
2024-05-09T10:58:19.343Z,1.47
2024-05-09T10:59:19.240Z,1.46
2024-05-09T11:00:27.453Z,1.42
2024-05-09T11:01:19.206Z,1.27
2024-05-09T11:02:19.239Z,1.32
2024-05-09T11:03:19.165Z,1.48
2024-05-09T11:04:19.178Z,1.61
2024-05-09T11:05:19.228Z,1.29
2024-05-09T11:06:18.899Z,1.66
2024-05-09T11:07:18.938Z,1.51
2024-05-09T11:08:18.805Z,1.27
2024-05-09T11:09:18.749Z,1.43
2024-05-09T11:10:27.114Z,1.53
2024-05-09T11:11:18.692Z,1.46
2024-05-09T11:12:20.603Z,1.49
2024-05-09T11:13:18.581Z,1.52
2024-05-09T11:14:18.491Z,1.50
2024-05-09T11:15:18.589Z,1.49
2024-05-09T11:16:18.494Z,1.53
2024-05-09T11:17:18.387Z,1.40
2024-05-09T11:18:19.794Z,1.52
2024-05-09T11:19:18.345Z,1.65
2024-05-09T11:20:26.761Z,1.49
2024-05-09T11:21:18.144Z,1.21
2024-05-09T11:22:18.115Z,1.21
2024-05-09T11:23:18.055Z,1.35
2024-05-09T11:24:18.007Z,1.42
2024-05-09T11:25:18.072Z,1.05
2024-05-09T11:26:17.894Z,1.58
2024-05-09T11:27:17.856Z,1.87
2024-05-09T11:28:17.944Z,1.25
2024-05-09T11:29:19.613Z,1.13
2024-05-09T11:30:26.584Z,1.46
2024-05-09T11:31:18.044Z,1.38
2024-05-09T11:32:17.702Z,1.10
2024-05-09T11:33:17.681Z,1.18
2024-05-09T11:34:17.633Z,1.14
2024-05-09T11:35:17.638Z,1.26
2024-05-09T11:36:17.522Z,1.61
2024-05-09T11:37:17.727Z,1.55
2024-05-09T11:38:17.462Z,1.77
2024-05-09T11:39:17.427Z,1.62
2024-05-09T11:40:25.171Z,1.65
2024-05-09T11:41:17.400Z,1.31
2024-05-09T11:42:17.359Z,1.73
2024-05-09T11:43:17.442Z,1.32
2024-05-09T11:44:17.264Z,1.46
2024-05-09T11:45:17.296Z,1.59
2024-05-09T11:46:17.402Z,1.45
2024-05-09T11:47:17.203Z,1.34
2024-05-09T11:48:17.188Z,1.60
2024-05-09T11:49:17.223Z,1.71
2024-05-09T11:50:26.732Z,1.78
2024-05-09T11:51:16.973Z,1.35
2024-05-09T11:52:17.141Z,1.38
2024-05-09T11:53:16.906Z,1.59
2024-05-09T11:54:16.872Z,1.39
2024-05-09T11:55:17.033Z,1.65
2024-05-09T11:56:16.815Z,1.56
2024-05-09T11:57:16.799Z,1.60
2024-05-09T11:58:17.000Z,1.49
2024-05-09T11:59:16.713Z,1.69
2024-05-09T12:00:24.610Z,1.56
2024-05-09T12:01:16.817Z,1.42
2024-05-09T12:02:17.033Z,1.35
2024-05-09T12:03:16.725Z,1.17
2024-05-09T12:04:16.916Z,1.55
2024-05-09T12:05:16.848Z,1.46
2024-05-09T12:06:16.727Z,1.75
2024-05-09T12:07:16.616Z,1.87
2024-05-09T12:08:16.604Z,1.66
2024-05-09T12:09:16.500Z,1.80
2024-05-09T12:10:19.872Z,1.56
2024-05-09T12:11:16.774Z,1.85
2024-05-09T12:12:16.417Z,1.86
2024-05-09T12:13:16.418Z,1.71
2024-05-09T12:14:16.219Z,2.13
2024-05-09T12:15:16.227Z,2.01
2024-05-09T12:16:16.407Z,1.99
2024-05-09T12:17:16.206Z,1.68
2024-05-09T12:18:16.187Z,2.15
2024-05-09T12:19:16.106Z,1.49
2024-05-09T12:20:21.582Z,1.99
2024-05-09T12:21:16.028Z,1.41
2024-05-09T12:22:16.061Z,1.84
2024-05-09T12:23:15.981Z,1.41
2024-05-09T12:24:18.242Z,1.75
2024-05-09T12:25:16.182Z,1.74
2024-05-09T12:26:15.960Z,1.66
2024-05-09T12:27:15.884Z,1.52
2024-05-09T12:28:16.025Z,1.57
2024-05-09T12:29:15.853Z,1.42
2024-05-09T12:30:24.656Z,1.59
2024-05-09T12:31:15.841Z,1.43
2024-05-09T12:32:15.886Z,1.83
2024-05-09T12:33:15.929Z,1.70
2024-05-09T12:34:15.852Z,2.03
2024-05-09T12:35:15.806Z,1.71
2024-05-09T12:36:15.714Z,1.64
2024-05-09T12:37:15.768Z,1.69
2024-05-09T12:38:15.738Z,2.37
2024-05-09T12:39:15.651Z,1.87
2024-05-09T12:40:22.989Z,1.32
2024-05-09T12:41:15.589Z,1.95
2024-05-09T12:42:26.405Z,2.41
2024-05-09T12:43:15.653Z,1.79
2024-05-09T12:44:15.522Z,2.11
2024-05-09T12:45:15.577Z,2.52
2024-05-09T12:46:15.520Z,2.15
2024-05-09T12:47:15.511Z,2.34
2024-05-09T12:48:15.586Z,2.34
2024-05-09T12:49:18.707Z,2.96
2024-05-09T12:50:22.390Z,2.17
2024-05-09T12:51:15.357Z,2.61
2024-05-09T12:52:15.425Z,2.64
2024-05-09T12:53:15.321Z,2.59
2024-05-09T12:54:15.300Z,2.23
2024-05-09T12:55:15.392Z,2.53
2024-05-09T12:56:15.200Z,2.09
2024-05-09T12:57:15.165Z,2.34
2024-05-09T12:58:15.305Z,2.24
2024-05-09T12:59:15.117Z,3.09
2024-05-09T13:00:23.485Z,2.55
2024-05-09T13:01:15.105Z,2.47
2024-05-09T13:02:15.298Z,2.15
2024-05-09T13:03:15.320Z,2.34
2024-05-09T13:04:15.147Z,1.88
2024-05-09T13:05:15.129Z,2.40
2024-05-09T13:06:14.943Z,2.44
2024-05-09T13:07:14.981Z,2.80
2024-05-09T13:08:14.892Z,2.64
2024-05-09T13:09:14.858Z,2.81
2024-05-09T13:10:23.035Z,2.56